createdAt,value
2018-08-04T00:00:55.432Z,3.90
2018-08-04T00:03:24.693Z,3.70
2018-08-04T00:05:54.352Z,3.27
2018-08-04T00:08:23.594Z,3.93
2018-08-04T00:10:53.357Z,3.47
2018-08-04T00:13:22.590Z,3.87
2018-08-04T00:15:51.927Z,3.73
2018-08-04T00:18:21.623Z,4.47
2018-08-04T00:20:50.865Z,3.03
2018-08-04T00:23:20.080Z,3.10
2018-08-04T00:25:49.298Z,3.10
2018-08-04T00:28:18.935Z,3.50
2018-08-04T00:30:48.572Z,3.43
2018-08-04T00:33:17.838Z,4.40
2018-08-04T00:35:47.520Z,4.07
2018-08-04T00:38:16.810Z,3.53
2018-08-04T00:40:46.863Z,3.37
2018-08-04T00:43:16.119Z,3.83
2018-08-04T00:45:45.355Z,3.80
2018-08-04T00:48:14.874Z,4.00
2018-08-04T00:50:44.418Z,3.97
2018-08-04T00:53:13.863Z,3.87
2018-08-04T00:55:43.358Z,3.77
2018-08-04T00:58:12.619Z,3.77
2018-08-04T01:00:41.830Z,3.30
2018-08-04T01:03:11.155Z,4.17
2018-08-04T01:05:40.365Z,3.43
2018-08-04T01:08:09.875Z,3.40
2018-08-04T01:10:39.901Z,4.13
2018-08-04T01:13:10.114Z,4.50
2018-08-04T01:15:39.838Z,4.00
2018-08-04T01:18:09.127Z,4.67
2018-08-04T01:20:38.564Z,4.03
2018-08-04T01:23:07.807Z,5.43
2018-08-04T01:25:37.171Z,5.20
2018-08-04T01:28:06.603Z,4.53
2018-08-04T01:30:36.293Z,4.63
2018-08-04T01:33:05.644Z,4.50
2018-08-04T01:35:35.007Z,5.23
2018-08-04T01:38:04.297Z,4.40
2018-08-04T01:40:34.243Z,4.67
2018-08-04T01:43:03.471Z,4.47
2018-08-04T01:45:33.083Z,4.47
2018-08-04T01:48:02.798Z,4.40
2018-08-04T01:50:32.760Z,4.10
2018-08-04T01:53:02.050Z,4.27
2018-08-04T01:55:31.303Z,4.10
2018-08-04T01:58:00.836Z,4.23
2018-08-04T02:00:30.075Z,4.77
2018-08-04T02:02:59.411Z,4.60
2018-08-04T02:05:28.708Z,4.70
2018-08-04T02:07:57.994Z,4.70
2018-08-04T02:10:27.231Z,4.93
2018-08-04T02:12:56.553Z,4.90
2018-08-04T02:15:26.261Z,4.67
2018-08-04T02:17:55.518Z,4.63
2018-08-04T02:20:24.812Z,4.53
2018-08-04T02:22:54.383Z,5.07
2018-08-04T02:25:23.635Z,4.47
2018-08-04T02:27:52.891Z,4.20
2018-08-04T02:30:22.197Z,4.00
2018-08-04T02:32:51.730Z,4.43
2018-08-04T02:35:20.762Z,4.80
2018-08-04T02:37:50.004Z,4.60
2018-08-04T02:40:19.644Z,4.80
2018-08-04T02:42:48.930Z,4.90
2018-08-04T02:45:18.561Z,4.30
2018-08-04T02:47:47.856Z,5.67
2018-08-04T02:50:17.396Z,4.87
2018-08-04T02:52:46.724Z,4.70
2018-08-04T02:55:16.276Z,5.30
2018-08-04T02:57:45.514Z,5.50
2018-08-04T03:00:15.524Z,4.83
2018-08-04T03:02:44.821Z,4.87
2018-08-04T03:05:14.080Z,5.67
2018-08-04T03:07:43.369Z,5.10
2018-08-04T03:10:12.637Z,4.47
2018-08-04T03:12:41.875Z,5.90
2018-08-04T03:15:11.481Z,4.77
2018-08-04T03:17:40.757Z,5.30
2018-08-04T03:20:10.303Z,4.17
2018-08-04T03:22:39.724Z,4.80
2018-08-04T03:25:08.996Z,5.50
2018-08-04T03:27:38.261Z,5.03
2018-08-04T03:30:07.505Z,5.93
2018-08-04T03:32:36.777Z,5.33
2018-08-04T03:35:06.126Z,6.00
2018-08-04T03:37:35.719Z,5.20
2018-08-04T03:40:05.531Z,4.80
2018-08-04T03:42:34.855Z,4.77
2018-08-04T03:45:04.104Z,5.60
2018-08-04T03:47:33.767Z,4.53
2018-08-04T03:50:03.448Z,4.83
2018-08-04T03:52:32.713Z,5.60
2018-08-04T03:55:02.007Z,5.50
2018-08-04T03:57:31.431Z,5.53
2018-08-04T04:00:00.691Z,5.40
2018-08-04T04:02:30.308Z,5.67
2018-08-04T04:04:59.564Z,5.60
2018-08-04T04:07:28.856Z,5.17
2018-08-04T04:09:58.376Z,4.70
2018-08-04T04:12:27.640Z,4.90
2018-08-04T04:14:57.026Z,4.83
2018-08-04T04:17:26.586Z,5.23
2018-08-04T04:19:55.831Z,5.53
2018-08-04T04:22:25.128Z,4.50
2018-08-04T04:24:54.359Z,4.90
2018-08-04T04:27:23.668Z,4.70
2018-08-04T04:29:59.195Z,5.17
2018-08-04T04:32:28.812Z,5.10
2018-08-04T04:34:58.089Z,4.83
2018-08-04T04:37:27.337Z,4.70
2018-08-04T04:39:56.947Z,5.60
2018-08-04T04:42:26.280Z,5.30
2018-08-04T04:44:55.483Z,5.17
2018-08-04T04:47:24.762Z,5.00
2018-08-04T04:49:54.302Z,5.40
2018-08-04T04:52:23.517Z,5.63
2018-08-04T04:54:53.379Z,5.87
2018-08-04T04:57:22.623Z,5.67
2018-08-04T04:59:51.879Z,6.00
2018-08-04T05:02:21.157Z,5.20
2018-08-04T05:04:50.566Z,5.60
2018-08-04T05:07:19.760Z,4.53
2018-08-04T05:09:49.016Z,4.70
2018-08-04T05:12:18.688Z,3.97
2018-08-04T05:14:48.243Z,4.70
2018-08-04T05:17:17.916Z,4.00
2018-08-04T05:19:47.159Z,4.23
2018-08-04T05:22:16.374Z,4.67
2018-08-04T05:24:45.590Z,4.77
2018-08-04T05:27:14.831Z,4.13
2018-08-04T05:29:43.864Z,4.70
2018-08-04T05:32:13.131Z,4.50
2018-08-04T05:34:43.113Z,4.10
2018-08-04T05:37:12.645Z,4.03
2018-08-04T05:39:42.188Z,4.40
2018-08-04T05:42:11.493Z,4.03
2018-08-04T05:44:40.750Z,4.20
2018-08-04T05:47:10.435Z,4.70
2018-08-04T05:49:39.665Z,4.53
2018-08-04T05:52:09.262Z,4.60
2018-08-04T05:54:38.530Z,4.70
2018-08-04T05:57:08.121Z,4.20
2018-08-04T05:59:37.388Z,4.60
2018-08-04T06:02:06.944Z,4.60
2018-08-04T06:04:36.493Z,4.60
2018-08-04T06:07:05.783Z,5.27
2018-08-04T06:09:35.337Z,4.77
2018-08-04T06:12:04.606Z,3.53
2018-08-04T06:14:34.202Z,3.90
2018-08-04T06:17:03.434Z,3.90
2018-08-04T06:19:32.764Z,3.67
2018-08-04T06:22:02.150Z,3.07
2018-08-04T06:24:31.416Z,2.50
2018-08-04T06:27:00.976Z,2.17
2018-08-04T06:29:30.547Z,2.27
2018-08-04T06:31:59.809Z,1.70
2018-08-04T06:34:29.354Z,1.90
2018-08-04T06:36:58.598Z,1.90
2018-08-04T06:39:27.937Z,2.53
2018-08-04T06:41:57.266Z,2.60
2018-08-04T06:44:26.744Z,3.33
2018-08-04T06:46:56.111Z,2.97
2018-08-04T06:49:26.013Z,3.10
2018-08-04T06:51:55.649Z,2.97
2018-08-04T06:54:24.618Z,3.33
2018-08-04T06:56:53.990Z,3.70
2018-08-04T06:59:23.281Z,3.70
2018-08-04T07:01:52.488Z,3.60
2018-08-04T07:04:22.215Z,3.47
2018-08-04T07:06:51.848Z,3.20
2018-08-04T07:09:21.147Z,3.23
2018-08-04T07:11:50.797Z,2.80
2018-08-04T07:14:20.068Z,3.20
2018-08-04T07:16:49.426Z,3.07
2018-08-04T07:19:19.353Z,3.20
2018-08-04T07:21:49.071Z,2.63
2018-08-04T07:24:19.056Z,4.10
2018-08-04T07:26:48.383Z,3.33
2018-08-04T07:29:18.168Z,2.97
2018-08-04T07:31:47.559Z,2.90
2018-08-04T07:34:16.819Z,3.57
2018-08-04T07:36:49.487Z,3.00
2018-08-04T07:39:18.871Z,3.03
2018-08-04T07:41:48.139Z,3.40
2018-08-04T07:44:17.444Z,3.37
2018-08-04T07:46:47.093Z,2.83
2018-08-04T07:49:16.916Z,3.73
2018-08-04T07:51:46.399Z,3.60
2018-08-04T07:54:16.477Z,3.40
2018-08-04T07:56:46.839Z,3.67
2018-08-04T07:59:16.245Z,3.30
2018-08-04T08:01:45.481Z,3.90
2018-08-04T08:04:14.760Z,3.33
2018-08-04T08:06:44.570Z,3.90
2018-08-04T08:09:14.041Z,3.80
2018-08-04T08:11:43.328Z,3.60
2018-08-04T08:14:12.635Z,4.30
2018-08-04T08:16:42.412Z,3.60
2018-08-04T08:19:11.671Z,3.43
2018-08-04T08:21:41.134Z,3.90
2018-08-04T08:24:10.404Z,3.33
2018-08-04T08:26:39.781Z,3.93
2018-08-04T08:29:09.055Z,3.57
2018-08-04T08:31:38.391Z,3.60
2018-08-04T08:34:07.616Z,3.50
2018-08-04T08:36:36.648Z,2.90
2018-08-04T08:39:08.802Z,3.80
2018-08-04T08:41:38.245Z,3.33
2018-08-04T08:44:12.552Z,3.70
2018-08-04T08:46:42.191Z,3.83
2018-08-04T08:49:11.494Z,3.40
2018-08-04T08:51:40.970Z,3.57
2018-08-04T08:54:10.861Z,3.63
2018-08-04T08:56:40.015Z,3.17
2018-08-04T08:59:09.768Z,3.63
2018-08-04T09:01:39.038Z,3.00
2018-08-04T09:04:08.685Z,3.63
2018-08-04T09:06:37.946Z,3.57
2018-08-04T09:09:10.070Z,3.53
2018-08-04T09:11:39.651Z,3.57
2018-08-04T09:14:08.966Z,3.43
2018-08-04T09:16:38.246Z,3.70
2018-08-04T09:19:07.519Z,3.33
2018-08-04T09:21:36.537Z,3.20
2018-08-04T09:24:05.867Z,2.77
2018-08-04T09:26:35.644Z,2.43
2018-08-04T09:29:05.088Z,2.80
2018-08-04T09:31:34.457Z,2.20
2018-08-04T09:34:03.740Z,2.00
2018-08-04T09:36:32.953Z,2.20
2018-08-04T09:39:02.234Z,1.73
2018-08-04T09:41:31.426Z,1.83
2018-08-04T09:44:00.670Z,2.40
2018-08-04T09:46:30.439Z,2.00
2018-08-04T09:48:59.722Z,1.90
2018-08-04T09:51:29.427Z,2.87
2018-08-04T09:53:58.544Z,2.30
2018-08-04T09:56:27.827Z,2.70
2018-08-04T09:58:56.878Z,3.27
2018-08-04T10:01:31.641Z,3.30
2018-08-04T10:04:00.858Z,3.33
2018-08-04T10:06:30.139Z,3.20
2018-08-04T10:08:59.702Z,3.40
2018-08-04T10:11:29.000Z,3.33
2018-08-04T10:13:58.246Z,3.60
2018-08-04T10:16:28.249Z,3.47
2018-08-04T10:18:58.192Z,3.10
2018-08-04T10:21:27.181Z,2.90
2018-08-04T10:23:56.434Z,2.57
2018-08-04T10:26:26.491Z,2.27
2018-08-04T10:28:55.899Z,2.53
2018-08-04T10:31:25.174Z,2.90
2018-08-04T10:33:54.674Z,3.27
2018-08-04T10:36:23.975Z,3.00
2018-08-04T10:38:54.399Z,3.27
2018-08-04T10:41:24.398Z,3.80
2018-08-04T10:43:53.680Z,3.80
2018-08-04T10:46:23.535Z,4.20
2018-08-04T10:48:53.124Z,4.03
2018-08-04T10:51:22.810Z,3.33
2018-08-04T10:53:52.080Z,3.83
2018-08-04T10:56:21.363Z,4.93
2018-08-04T10:58:50.555Z,4.43
2018-08-04T11:01:19.802Z,4.60
2018-08-04T11:03:49.107Z,4.77
2018-08-04T11:06:18.357Z,4.43
2018-08-04T11:08:48.472Z,4.20
2018-08-04T11:11:17.787Z,4.03
2018-08-04T11:13:47.045Z,3.97
2018-08-04T11:16:16.601Z,4.30
2018-08-04T11:18:45.846Z,4.23
2018-08-04T11:21:15.109Z,4.80
2018-08-04T11:23:44.375Z,4.47
2018-08-04T11:26:13.689Z,4.50
2018-08-04T11:28:43.603Z,4.03
2018-08-04T11:31:13.291Z,5.27
2018-08-04T11:33:42.603Z,4.83
2018-08-04T11:36:11.825Z,5.37
2018-08-04T11:38:41.506Z,4.63
2018-08-04T11:41:10.797Z,4.23
2018-08-04T11:43:40.501Z,3.80
2018-08-04T11:46:09.851Z,3.73
2018-08-04T11:48:39.511Z,4.33
2018-08-04T11:51:09.217Z,3.93
2018-08-04T11:53:38.894Z,5.87
2018-08-04T11:56:08.111Z,5.10
2018-08-04T11:58:37.374Z,5.03
2018-08-04T12:01:06.643Z,5.07
2018-08-04T12:03:36.347Z,5.30
2018-08-04T12:06:05.795Z,4.50
2018-08-04T12:08:35.159Z,5.10
2018-08-04T12:11:05.281Z,5.20
2018-08-04T12:13:34.494Z,4.77
2018-08-04T12:16:04.173Z,5.20
2018-08-04T12:18:33.499Z,5.10
2018-08-04T12:21:03.112Z,5.27
2018-08-04T12:23:32.129Z,4.97
2018-08-04T12:26:01.356Z,4.97
2018-08-04T12:28:30.611Z,5.43
2018-08-04T12:30:59.909Z,4.50
2018-08-04T12:33:28.975Z,5.00
2018-08-04T12:35:58.608Z,4.17
2018-08-04T12:38:28.237Z,4.17
2018-08-04T12:40:57.466Z,4.50
2018-08-04T12:43:27.216Z,4.13
2018-08-04T12:45:56.520Z,4.97
2018-08-04T12:48:29.078Z,4.33
2018-08-04T12:51:00.544Z,4.57
2018-08-04T12:53:29.887Z,4.03
2018-08-04T12:56:00.129Z,5.27
2018-08-04T12:58:29.401Z,4.13
2018-08-04T13:00:58.648Z,4.40
2018-08-04T13:03:28.230Z,5.13
2018-08-04T13:05:57.943Z,4.60
2018-08-04T13:08:28.054Z,4.83
2018-08-04T13:10:57.295Z,4.30
2018-08-04T13:13:26.538Z,4.73
2018-08-04T13:15:55.747Z,4.13
2018-08-04T13:18:25.437Z,4.00
2018-08-04T13:20:55.106Z,4.80
2018-08-04T13:23:24.384Z,4.73
2018-08-04T13:25:53.643Z,4.40
2018-08-04T13:28:22.890Z,4.47
2018-08-04T13:30:52.173Z,4.60
2018-08-04T13:33:21.606Z,4.80
2018-08-04T13:35:50.825Z,4.13
2018-08-04T13:38:20.101Z,4.90
2018-08-04T13:40:50.444Z,4.20
2018-08-04T13:43:20.067Z,5.00
2018-08-04T13:45:49.345Z,4.43
2018-08-04T13:48:18.390Z,5.80
2018-08-04T13:50:47.991Z,4.53
2018-08-04T13:53:17.215Z,4.10
2018-08-04T13:55:46.468Z,3.97
2018-08-04T13:58:16.127Z,5.23
2018-08-04T14:00:45.436Z,4.40
2018-08-04T14:03:14.975Z,3.87
2018-08-04T14:05:44.216Z,3.53
2018-08-04T14:08:13.474Z,3.53
2018-08-04T14:10:42.512Z,3.30
2018-08-04T14:13:11.792Z,3.47
2018-08-04T14:15:41.019Z,3.33
2018-08-04T14:18:10.240Z,3.30
2018-08-04T14:20:39.636Z,3.43
2018-08-04T14:23:09.261Z,3.83
2018-08-04T14:25:39.256Z,4.67
2018-08-04T14:28:08.900Z,4.37
2018-08-04T14:30:38.588Z,5.50
2018-08-04T14:33:08.712Z,3.83
2018-08-04T14:35:38.343Z,3.70
2018-08-04T14:38:07.577Z,3.93
2018-08-04T14:40:36.918Z,3.70
2018-08-04T14:43:06.632Z,3.00
2018-08-04T14:45:36.219Z,3.80
2018-08-04T14:48:05.575Z,3.23
2018-08-04T14:50:34.866Z,3.73
2018-08-04T14:53:04.130Z,4.00
2018-08-04T14:55:33.791Z,3.33
2018-08-04T14:58:03.010Z,3.70
2018-08-04T15:00:32.463Z,3.73
2018-08-04T15:03:01.736Z,3.30
2018-08-04T15:05:31.372Z,3.43
2018-08-04T15:08:00.685Z,3.20
2018-08-04T15:10:30.543Z,2.63
2018-08-04T15:13:00.030Z,3.70
2018-08-04T15:15:29.566Z,2.90
2018-08-04T15:17:59.267Z,2.60
2018-08-04T15:20:28.991Z,3.23
2018-08-04T15:22:58.486Z,2.70
2018-08-04T15:25:28.061Z,3.47
2018-08-04T15:27:57.307Z,3.50
2018-08-04T15:30:26.603Z,3.30
2018-08-04T15:32:55.916Z,2.93
2018-08-04T15:35:25.807Z,2.70
2018-08-04T15:37:55.473Z,2.67
2018-08-04T15:40:24.802Z,2.90
2018-08-04T15:42:54.428Z,2.80
2018-08-04T15:45:23.686Z,3.50
2018-08-04T15:47:52.946Z,3.10
2018-08-04T15:50:22.506Z,2.80
2018-08-04T15:52:52.244Z,3.67
2018-08-04T15:55:21.807Z,2.97
2018-08-04T15:57:51.051Z,3.30
2018-08-04T16:00:20.384Z,2.80
2018-08-04T16:02:50.047Z,2.60
2018-08-04T16:05:19.645Z,3.10
2018-08-04T16:07:48.920Z,2.90
2018-08-04T16:10:18.198Z,2.50
2018-08-04T16:12:47.478Z,3.20
2018-08-04T16:15:17.128Z,4.07
2018-08-04T16:17:46.379Z,2.40
2018-08-04T16:20:17.050Z,3.20
2018-08-04T16:22:46.635Z,2.90
2018-08-04T16:25:16.152Z,3.47
2018-08-04T16:27:45.415Z,2.87
2018-08-04T16:30:14.699Z,3.77
2018-08-04T16:32:44.235Z,3.50
2018-08-04T16:35:13.902Z,5.37
2018-08-04T16:37:43.176Z,3.30
2018-08-04T16:40:12.436Z,3.80
2018-08-04T16:42:42.149Z,3.57
2018-08-04T16:45:11.820Z,3.50
2018-08-04T16:47:41.123Z,3.03
2018-08-04T16:50:10.466Z,4.07
2018-08-04T16:52:40.091Z,4.00
2018-08-04T16:55:10.187Z,3.03
2018-08-04T16:57:39.490Z,3.07
2018-08-04T17:00:09.391Z,3.70
2018-08-04T17:02:40.027Z,2.90
2018-08-04T17:05:09.881Z,2.80
2018-08-04T17:07:39.220Z,2.47
2018-08-04T17:10:08.474Z,3.00
2018-08-04T17:12:38.060Z,3.37
2018-08-04T17:15:07.407Z,2.97
2018-08-04T17:17:37.156Z,2.50
2018-08-04T17:20:07.036Z,2.53
2018-08-04T17:22:36.302Z,2.70
2018-08-04T17:25:05.428Z,3.03
2018-08-04T17:27:34.759Z,3.07
2018-08-04T17:30:03.998Z,2.87
2018-08-04T17:32:33.944Z,2.83
2018-08-04T17:35:03.201Z,2.30
2018-08-04T17:37:32.548Z,1.90
2018-08-04T17:40:02.260Z,2.00
2018-08-04T17:42:31.807Z,3.77
2018-08-04T17:45:01.531Z,2.73
2018-08-04T17:47:31.247Z,2.47
2018-08-04T17:50:00.851Z,3.20
2018-08-04T17:52:30.112Z,2.60
2018-08-04T17:54:59.445Z,3.53
2018-08-04T17:57:29.225Z,3.10
2018-08-04T17:59:58.937Z,2.17
2018-08-04T18:02:28.931Z,2.70
2018-08-04T18:04:58.183Z,3.50
2018-08-04T18:07:27.476Z,3.40
2018-08-04T18:09:56.888Z,2.57
2018-08-04T18:12:26.166Z,2.80
2018-08-04T18:14:55.424Z,2.50
2018-08-04T18:17:24.655Z,2.10
2018-08-04T18:19:54.019Z,2.80
2018-08-04T18:22:23.271Z,2.50
2018-08-04T18:24:53.337Z,3.13
2018-08-04T18:27:22.554Z,2.30
2018-08-04T18:29:52.031Z,2.30
2018-08-04T18:32:21.457Z,2.13
2018-08-04T18:34:50.744Z,2.23
2018-08-04T18:37:20.159Z,2.23
2018-08-04T18:39:49.416Z,2.47
2018-08-04T18:42:18.807Z,2.80
2018-08-04T18:44:48.676Z,2.63
2018-08-04T18:47:17.914Z,2.90
2018-08-04T18:49:48.011Z,2.70
2018-08-04T18:52:17.659Z,2.70
2018-08-04T18:54:46.972Z,2.37
2018-08-04T18:57:16.217Z,2.50
2018-08-04T18:59:45.500Z,2.27
2018-08-04T19:02:14.771Z,2.20
2018-08-04T19:04:44.359Z,2.13
2018-08-04T19:07:13.625Z,2.33
2018-08-04T19:09:42.892Z,2.23
2018-08-04T19:12:12.197Z,2.40
2018-08-04T19:14:41.434Z,3.00
2018-08-04T19:17:10.719Z,2.27
2018-08-04T19:19:40.451Z,2.27
2018-08-04T19:22:10.017Z,2.10
2018-08-04T19:24:39.329Z,1.97
2018-08-04T19:27:09.476Z,2.60
2018-08-04T19:29:39.182Z,3.00
2018-08-04T19:32:09.096Z,3.00
2018-08-04T19:34:38.634Z,2.10
2018-08-04T19:37:08.330Z,2.30
2018-08-04T19:39:37.627Z,2.63
2018-08-04T19:42:06.902Z,2.57
2018-08-04T19:44:37.039Z,3.27
2018-08-04T19:47:06.570Z,3.50
2018-08-04T19:49:36.102Z,2.73
2018-08-04T19:52:05.350Z,1.70
2018-08-04T19:54:34.693Z,2.00
2018-08-04T19:57:03.984Z,2.10
2018-08-04T19:59:33.595Z,2.10
2018-08-04T20:02:02.848Z,2.37
2018-08-04T20:04:32.440Z,2.00
2018-08-04T20:07:01.738Z,1.90
2018-08-04T20:09:30.970Z,2.03
2018-08-04T20:12:00.287Z,2.67
2018-08-04T20:14:29.553Z,1.90
2018-08-04T20:16:59.140Z,2.00
2018-08-04T20:19:28.339Z,2.03
2018-08-04T20:21:57.930Z,2.00
2018-08-04T20:24:27.197Z,1.83
2018-08-04T20:26:56.467Z,2.13
2018-08-04T20:29:25.816Z,2.13
2018-08-04T20:31:55.607Z,2.13
2018-08-04T20:34:24.910Z,1.83
2018-08-04T20:36:54.670Z,2.30
2018-08-04T20:39:24.004Z,1.93
2018-08-04T20:41:53.629Z,2.10
2018-08-04T20:44:22.898Z,2.60
2018-08-04T20:46:52.402Z,2.20
2018-08-04T20:49:21.675Z,2.07
2018-08-04T20:51:50.936Z,2.80
2018-08-04T20:54:20.190Z,2.50
2018-08-04T20:56:49.911Z,2.13
2018-08-04T20:59:19.237Z,2.20
2018-08-04T21:01:57.454Z,2.27
2018-08-04T21:04:27.139Z,2.17
2018-08-04T21:06:56.609Z,2.20
2018-08-04T21:09:26.933Z,2.10
2018-08-04T21:11:56.943Z,1.93
2018-08-04T21:14:27.276Z,2.27
2018-08-04T21:16:57.357Z,1.90
2018-08-04T21:19:27.415Z,1.67
2018-08-04T21:21:57.010Z,1.97
2018-08-04T21:24:27.032Z,2.20
2018-08-04T21:26:56.677Z,1.83
2018-08-04T21:29:26.050Z,2.17
2018-08-04T21:31:55.259Z,1.90
2018-08-04T21:34:24.503Z,1.60
2018-08-04T21:36:53.862Z,2.20
2018-08-04T21:39:23.377Z,1.30
2018-08-04T21:41:53.908Z,1.90
2018-08-04T21:44:23.939Z,2.00
2018-08-04T21:46:53.239Z,1.70
2018-08-04T21:49:22.526Z,2.00
2018-08-04T21:51:52.202Z,1.50
2018-08-04T21:54:21.890Z,1.93
2018-08-04T21:56:51.734Z,2.00
2018-08-04T21:59:21.378Z,1.70
2018-08-04T22:01:54.096Z,2.13
2018-08-04T22:04:23.859Z,1.87
2018-08-04T22:08:12.014Z,1.97
2018-08-04T22:10:41.323Z,1.97
2018-08-04T22:13:11.031Z,2.40
2018-08-04T22:15:40.616Z,1.80
2018-08-04T22:18:09.860Z,2.07
2018-08-04T22:20:39.728Z,2.10
2018-08-04T22:23:09.141Z,1.70
2018-08-04T22:25:38.405Z,1.97
2018-08-04T22:28:07.754Z,2.20
2018-08-04T22:30:37.486Z,2.50
2018-08-04T22:33:07.426Z,2.87
2018-08-04T22:35:36.716Z,1.80
2018-08-04T22:38:06.334Z,2.50
2018-08-04T22:40:35.607Z,2.33
2018-08-04T22:43:05.366Z,2.53
2018-08-04T22:46:15.403Z,2.27
2018-08-04T22:48:46.352Z,2.23
2018-08-04T22:51:19.753Z,2.30
2018-08-04T22:53:49.210Z,2.70
2018-08-04T22:56:18.756Z,2.47
2018-08-04T22:58:48.361Z,2.23
2018-08-04T23:01:17.692Z,2.43
2018-08-04T23:06:16.963Z,3.00
2018-08-04T23:08:46.212Z,2.07
2018-08-04T23:11:15.800Z,2.13
2018-08-04T23:13:45.160Z,1.90
2018-08-04T23:16:14.412Z,2.10
2018-08-04T23:18:44.314Z,2.20
2018-08-04T23:21:13.963Z,2.20
2018-08-04T23:23:43.592Z,1.97
2018-08-04T23:26:13.248Z,2.00
2018-08-04T23:28:43.240Z,1.70
2018-08-04T23:31:12.462Z,1.30
2018-08-04T23:33:42.475Z,1.70
2018-08-04T23:36:12.030Z,1.77
2018-08-04T23:38:41.335Z,1.70
2018-08-04T23:41:10.782Z,1.90
2018-08-04T23:43:40.099Z,1.70
2018-08-04T23:46:09.382Z,1.67
2018-08-04T23:48:38.619Z,1.93
2018-08-04T23:51:08.358Z,1.70
2018-08-04T23:53:38.343Z,2.37
2018-08-04T23:56:08.045Z,1.80
2018-08-04T23:58:37.338Z,2.10
